ADDS METAR Data INFO
IDs: Format: Raw Decoded Include TAF

Data at: 1610 UTC 14 Aug 2018

KTVK 141555Z AUTO 00000KT 10SM 25/22 A2999 RMK AO2
KTVK 141535Z AUTO 00000KT 10SM 25/22 A2998 RMK AO2
KTVK 141515Z AUTO 00000KT 10SM 25/22 A2999 RMK AO2
KTVK 141455Z AUTO 00000KT 10SM 25/22 A2998 RMK AO2
KTVK 141435Z AUTO 00000KT 10SM 24/22 A2998 RMK AO2
KTVK 141415Z AUTO 00000KT 10SM 24/22 A2998 RMK AO2
KTVK 141355Z AUTO 00000KT 10SM 23/22 A2999 RMK AO2
KTVK 141335Z AUTO 00000KT 10SM 22/22 A2999 RMK AO2
KTVK 141315Z AUTO 00000KT 10SM 21/21 A2999 RMK AO2
KTVK 141255Z AUTO 00000KT 10SM 20/20 A2998 RMK AO2
KTVK 141235Z AUTO 00000KT 10SM 20/20 A2998 RMK AO2
KTVK 141215Z AUTO 00000KT 10SM 19/19 A2998 RMK AO2
KTVK 141155Z AUTO 00000KT 10SM 18/18 A2998 RMK AO2
KTVK 141135Z AUTO 00000KT 10SM 18/18 A2997 RMK AO2
KTVK 141115Z AUTO 00000KT 10SM 18/18 A2997 RMK AO2
KTVK 141055Z AUTO 00000KT 10SM 17/17 A2997 RMK AO2
KTVK 141035Z AUTO 00000KT 10SM 18/18 A2997 RMK AO2
KTVK 141015Z AUTO 00000KT 10SM 18/18 A2997 RMK AO2
KTVK 140955Z AUTO 00000KT 10SM 18/18 A2997 RMK AO2
KTVK 140935Z AUTO 00000KT 10SM 18/18 A2997 RMK AO2
KTVK 140915Z AUTO 00000KT 10SM 18/18 A2997 RMK AO2
KTVK 140855Z AUTO 00000KT 10SM 18/18 A2998 RMK AO2
KTVK 140835Z AUTO 00000KT 10SM 18/18 A2998 RMK AO2
KTVK 140815Z AUTO 00000KT 10SM 19/18 A2999 RMK AO2
KTVK 140755Z AUTO 00000KT 10SM 19/18 A2999 RMK AO2
KTVK 140735Z AUTO 00000KT 10SM 19/18 A2999 RMK AO2
KTVK 140715Z AUTO 00000KT 10SM 19/17 A2999 RMK AO2
KTVK 140655Z AUTO 00000KT 10SM 20/17 A2999 RMK AO2
KTVK 140635Z AUTO 00000KT 10SM 19/17 A3000 RMK AO2
KTVK 140615Z AUTO 00000KT 10SM 19/18 A3000 RMK AO2
KTVK 140555Z AUTO 00000KT 10SM 20/17 A3000 RMK AO2
KTVK 140535Z AUTO 00000KT 10SM 19/18 A3001 RMK AO2
KTVK 140515Z AUTO 00000KT 10SM 19/18 A3001 RMK AO2
KTVK 140455Z AUTO 00000KT 10SM 20/18 A3001 RMK AO2
KTVK 140435Z AUTO 00000KT 10SM 21/18 A3001 RMK AO2
KTVK 140415Z AUTO 00000KT 10SM 22/17 A3001 RMK AO2
KTVK 140355Z AUTO 00000KT 10SM 22/17 A3001 RMK AO2
KTVK 140335Z AUTO 00000KT 10SM 22/18 A3001 RMK AO2
KTVK 140315Z AUTO 00000KT 10SM 23/17 A3001 RMK AO2
KTVK 140255Z AUTO 00000KT 10SM 23/17 A3001 RMK AO2
KTVK 140235Z AUTO 00000KT 10SM 23/17 A3001 RMK AO2
KTVK 140215Z AUTO 00000KT 10SM 24/17 A3001 RMK AO2
KTVK 140155Z AUTO 00000KT 10SM 25/17 A3001 RMK AO2
KTVK 140135Z AUTO 00000KT 10SM 26/17 A3000 RMK AO2
KTVK 140115Z AUTO 00000KT 10SM 27/16 A3000 RMK AO2
KTVK 140055Z AUTO 00000KT 10SM 28/15 A3000 RMK AO2
KTVK 140035Z AUTO 00000KT 10SM 28/15 A3000 RMK AO2
KTVK 140015Z AUTO 00000KT 10SM 29/15 A3000 RMK AO2
KTVK 132355Z AUTO 00000KT 10SM 30/15 A3000 RMK AO2
KTVK 132335Z AUTO 00000KT 10SM 32/15 A2999 RMK AO2
KTVK 132315Z AUTO 09003KT 10SM 32/15 A2999 RMK AO2
KTVK 132255Z AUTO 09004KT 10SM 32/15 A3000 RMK AO2
KTVK 132235Z AUTO 00000KT 10SM 33/15 A3000 RMK AO2
KTVK 132215Z AUTO 09005KT 10SM 33/15 A2999 RMK AO2
KTVK 132155Z AUTO 10006KT 10SM 33/15 A3000 RMK AO2
KTVK 132135Z AUTO 09003KT 10SM 33/15 A3000 RMK AO2
KTVK 132115Z AUTO 00000KT 10SM 33/16 A3001 RMK AO2
KTVK 132055Z AUTO 09004KT 10SM 33/16 A3001 RMK AO2
KTVK 132035Z AUTO 00000KT 10SM 33/15 A3002 RMK AO2
KTVK 132015Z AUTO 12008KT 10SM 33/16 A3003 RMK AO2
KTVK 131955Z AUTO 11004KT 10SM 34/16 A3003 RMK AO2
KTVK 131935Z AUTO 09006KT 10SM 33/16 A3004 RMK AO2
KTVK 131915Z AUTO 00000KT 10SM 33/15 A3005 RMK AO2
KTVK 131855Z AUTO 00000KT 10SM 33/16 A3006 RMK AO2
KTVK 131835Z AUTO 00000KT 10SM 33/17 A3007 RMK AO2
KTVK 131815Z AUTO 00000KT 10SM 33/18 A3007 RMK AO2
KTVK 131755Z AUTO 00000KT 10SM 32/18 A3008 RMK AO2
KTVK 131735Z AUTO 00000KT 10SM 32/19 A3008 RMK AO2
KTVK 131715Z AUTO 00000KT 10SM 31/19 A3009 RMK AO2
KTVK 131655Z AUTO 00000KT 10SM 31/19 A3009 RMK AO2
KTVK 131635Z AUTO 00000KT 10SM 30/19 A3010 RMK AO2
KTVK 131615Z AUTO 14006KT 10SM 30/19 A3010 RMK AO2
KTVK 131555Z AUTO 15003KT 10SM 29/19 A3010 RMK AO2
KTVK 131535Z AUTO 17003KT 10SM 28/19 A3011 RMK AO2
KTVK 131515Z AUTO 00000KT 10SM 28/19 A3011 RMK AO2
KTVK 131455Z AUTO 00000KT 10SM 27/19 A3011 RMK AO2
KTVK 131435Z AUTO 00000KT 10SM 27/19 A3011 RMK AO2
KTVK 131415Z AUTO 00000KT 10SM 25/19 A3012 RMK AO2
KTVK 131355Z AUTO 00000KT 10SM 25/20 A3012 RMK AO2
KTVK 131335Z AUTO 00000KT 10SM 23/21 A3012 RMK AO2
KTVK 131315Z AUTO 00000KT 10SM 22/22 A3012 RMK AO2
KTVK 131255Z AUTO 00000KT 10SM 21/20 A3012 RMK AO2
KTVK 131235Z AUTO 00000KT 10SM 19/19 A3012 RMK AO2
KTVK 131215Z AUTO 00000KT 10SM 18/18 A3012 RMK AO2
KTVK 131155Z AUTO 00000KT 10SM 17/17 A3012 RMK AO2
KTVK 131135Z AUTO 00000KT 10SM 17/17 A3011 RMK AO2
KTVK 131115Z AUTO 00000KT 10SM 17/17 A3011 RMK AO2
KTVK 131055Z AUTO 00000KT 10SM 17/17 A3011 RMK AO2
KTVK 131035Z AUTO 00000KT 10SM 17/17 A3011 RMK AO2
KTVK 131015Z AUTO 00000KT 10SM 17/17 A3012 RMK AO2
KTVK 130955Z AUTO 00000KT 10SM 17/17 A3012 RMK AO2
KTVK 130935Z AUTO 00000KT 10SM 17/17 A3012 RMK AO2
KTVK 130915Z AUTO 00000KT 10SM 17/17 A3012 RMK AO2
KTVK 130855Z AUTO 00000KT 10SM 17/17 A3012 RMK AO2
KTVK 130835Z AUTO 00000KT 10SM 17/17 A3012 RMK AO2
KTVK 130815Z AUTO 00000KT 10SM 17/17 A3012 RMK AO2
KTVK 130755Z AUTO 00000KT 10SM 17/17 A3011 RMK AO2
KTVK 130735Z AUTO 00000KT 10SM 17/17 A3012 RMK AO2
KTVK 130715Z AUTO 00000KT 10SM 17/16 A3011 RMK AO2
KTVK 130655Z AUTO 00000KT 10SM 17/17 A3012 RMK AO2
KTVK 130635Z AUTO 00000KT 10SM 18/18 A3012 RMK AO2
KTVK 130615Z AUTO 00000KT 10SM 17/17 A3013 RMK AO2
KTVK 130555Z AUTO 00000KT 10SM 17/17 A3013 RMK AO2
KTVK 130535Z AUTO 00000KT 10SM 18/18 A3013 RMK AO2
KTVK 130515Z AUTO 00000KT 10SM 18/18 A3013 RMK AO2
KTVK 130455Z AUTO 00000KT 10SM 18/18 A3013 RMK AO2
KTVK 130435Z AUTO 00000KT 10SM 19/19 A3013 RMK AO2
KTVK 130415Z AUTO 00000KT 10SM 19/18 A3013 RMK AO2